LTBL/IGI METAR and TAF weather

Enter ICAO airport designator
Station Type Date Time Source
LTBL METAR 2020/11/25 21:50 UTC NOAA

LTBL 252150Z 01012KT CAVOK 11/02 Q1018 NOSIG RMK RWY17 01008KT


Station Type Date Time Source
LTBL Decoded METAR 2020/11/25 21:50 UTC NOAA

Izmir / Cigli, Turkey (LTBL) 38-30N 027-01E 5M
Nov 25, 2020 - 04:50 PM EST / 2020.11.25 2150 UTC
Wind: from the N (010 degrees) at 14 MPH (12 KT):0
Visibility: greater than 7 mile(s):0
Temperature: 51 F (11 C)
Dew Point: 35 F (2 C)
Relative Humidity: 53%
Pressure (altimeter): 30.06 in. Hg (1018 hPa)
ob: LTBL 252150Z 01012KT CAVOK 11/02 Q1018 NOSIG RMK RWY17 01008KT
cycle: 22

Station Type Date Time Source
LTBL TAF UTC NOAA

Error!

Example: see airport list